sensor_id;sensor_type;location;lat;lon;timestamp;P1;durP1;ratioP1;P2;durP2;ratioP2
41709;SDS011;59402;48.396;-4.472;2023-02-21T00:01:51;37.22;;;26.25;;
41709;SDS011;59402;48.396;-4.472;2023-02-21T00:04:35;38.25;;;26.52;;
41709;SDS011;59402;48.396;-4.472;2023-02-21T00:07:19;39.83;;;27.00;;
41709;SDS011;59402;48.396;-4.472;2023-02-21T00:10:04;40.90;;;26.23;;
41709;SDS011;59402;48.396;-4.472;2023-02-21T00:12:49;38.97;;;26.83;;
41709;SDS011;59402;48.396;-4.472;2023-02-21T00:15:33;38.15;;;25.83;;
41709;SDS011;59402;48.396;-4.472;2023-02-21T00:18:18;40.70;;;26.20;;
41709;SDS011;59402;48.396;-4.472;2023-02-21T00:21:02;39.60;;;26.63;;
41709;SDS011;59402;48.396;-4.472;2023-02-21T00:23:47;39.55;;;27.45;;
41709;SDS011;59402;48.396;-4.472;2023-02-21T00:26:31;36.63;;;24.98;;
41709;SDS011;59402;48.396;-4.472;2023-02-21T00:29:16;39.47;;;26.08;;
41709;SDS011;59402;48.396;-4.472;2023-02-21T00:32:00;38.70;;;25.60;;
41709;SDS011;59402;48.396;-4.472;2023-02-21T00:34:44;39.83;;;26.30;;
41709;SDS011;59402;48.396;-4.472;2023-02-21T00:37:29;41.15;;;25.38;;
41709;SDS011;59402;48.396;-4.472;2023-02-21T00:40:13;38.35;;;24.75;;
41709;SDS011;59402;48.396;-4.472;2023-02-21T00:42:59;36.72;;;24.83;;
41709;SDS011;59402;48.396;-4.472;2023-02-21T00:45:44;40.00;;;26.42;;
41709;SDS011;59402;48.396;-4.472;2023-02-21T00:48:28;37.83;;;24.52;;
41709;SDS011;59402;48.396;-4.472;2023-02-21T00:51:13;34.03;;;23.25;;
41709;SDS011;59402;48.396;-4.472;2023-02-21T00:53:57;35.80;;;24.48;;
41709;SDS011;59402;48.396;-4.472;2023-02-21T00:56:41;35.92;;;24.55;;
41709;SDS011;59402;48.396;-4.472;2023-02-21T00:59:26;39.45;;;24.85;;
41709;SDS011;59402;48.396;-4.472;2023-02-21T01:02:10;35.00;;;23.35;;
41709;SDS011;59402;48.396;-4.472;2023-02-21T01:04:55;36.95;;;24.00;;
41709;SDS011;59402;48.396;-4.472;2023-02-21T01:07:39;42.47;;;27.50;;
41709;SDS011;59402;48.396;-4.472;2023-02-21T01:10:23;46.97;;;29.27;;
41709;SDS011;59402;48.396;-4.472;2023-02-21T01:13:07;38.75;;;25.88;;
41709;SDS011;59402;48.396;-4.472;2023-02-21T01:15:52;43.72;;;26.63;;
41709;SDS011;59402;48.396;-4.472;2023-02-21T01:18:38;39.45;;;26.85;;
41709;SDS011;59402;48.396;-4.472;2023-02-21T01:21:22;45.35;;;27.20;;
41709;SDS011;59402;48.396;-4.472;2023-02-21T01:24:08;42.65;;;26.33;;
41709;SDS011;59402;48.396;-4.472;2023-02-21T01:26:54;36.47;;;24.10;;
41709;SDS011;59402;48.396;-4.472;2023-02-21T01:29:39;30.73;;;22.25;;
41709;SDS011;59402;48.396;-4.472;2023-02-21T01:32:23;35.53;;;22.95;;
41709;SDS011;59402;48.396;-4.472;2023-02-21T01:35:07;33.88;;;22.73;;
41709;SDS011;59402;48.396;-4.472;2023-02-21T01:37:52;33.13;;;22.58;;
41709;SDS011;59402;48.396;-4.472;2023-02-21T01:40:37;33.05;;;23.00;;
41709;SDS011;59402;48.396;-4.472;2023-02-21T01:43:23;33.17;;;23.88;;
41709;SDS011;59402;48.396;-4.472;2023-02-21T01:46:10;33.30;;;23.27;;
41709;SDS011;59402;48.396;-4.472;2023-02-21T01:48:59;30.73;;;21.60;;
41709;SDS011;59402;48.396;-4.472;2023-02-21T01:51:47;30.00;;;21.95;;
41709;SDS011;59402;48.396;-4.472;2023-02-21T01:54:32;32.00;;;22.80;;
41709;SDS011;59402;48.396;-4.472;2023-02-21T01:57:20;29.17;;;21.90;;
41709;SDS011;59402;48.396;-4.472;2023-02-21T02:00:06;29.65;;;22.02;;
41709;SDS011;59402;48.396;-4.472;2023-02-21T02:05:42;29.42;;;20.73;;
41709;SDS011;59402;48.396;-4.472;2023-02-21T02:08:31;32.08;;;22.05;;
41709;SDS011;59402;48.396;-4.472;2023-02-21T02:20:01;28.80;;;22.00;;
41709;SDS011;59402;48.396;-4.472;2023-02-21T02:22:37;29.70;;;22.27;;
41709;SDS011;59402;48.396;-4.472;2023-02-21T02:36:29;25.58;;;18.92;;
41709;SDS011;59402;48.396;-4.472;2023-02-21T02:44:39;26.83;;;18.90;;
41709;SDS011;59402;48.396;-4.472;2023-02-21T02:47:07;24.42;;;18.42;;
41709;SDS011;59402;48.396;-4.472;2023-02-21T02:49:40;24.27;;;18.23;;
41709;SDS011;59402;48.396;-4.472;2023-02-21T02:52:08;25.63;;;19.30;;
41709;SDS011;59402;48.396;-4.472;2023-02-21T02:57:01;26.38;;;18.98;;
41709;SDS011;59402;48.396;-4.472;2023-02-21T02:59:35;26.45;;;17.67;;
41709;SDS011;59402;48.396;-4.472;2023-02-21T03:02:12;25.67;;;18.73;;
41709;SDS011;59402;48.396;-4.472;2023-02-21T03:07:46;26.08;;;18.83;;
41709;SDS011;59402;48.396;-4.472;2023-02-21T03:16:05;25.55;;;18.63;;
41709;SDS011;59402;48.396;-4.472;2023-02-21T03:21:41;24.17;;;17.55;;
41709;SDS011;59402;48.396;-4.472;2023-02-21T03:24:10;24.10;;;17.55;;
41709;SDS011;59402;48.396;-4.472;2023-02-21T03:26:39;21.58;;;16.30;;
41709;SDS011;59402;48.396;-4.472;2023-02-21T03:29:30;22.08;;;16.58;;
41709;SDS011;59402;48.396;-4.472;2023-02-21T03:32:44;22.90;;;16.92;;
41709;SDS011;59402;48.396;-4.472;2023-02-21T03:34:58;21.88;;;16.80;;
41709;SDS011;59402;48.396;-4.472;2023-02-21T03:37:32;24.27;;;17.35;;
41709;SDS011;59402;48.396;-4.472;2023-02-21T03:40:13;23.50;;;17.15;;
41709;SDS011;59402;48.396;-4.472;2023-02-21T03:42:45;21.98;;;17.20;;
41709;SDS011;59402;48.396;-4.472;2023-02-21T03:45:13;24.88;;;17.90;;
41709;SDS011;59402;48.396;-4.472;2023-02-21T03:47:40;23.13;;;17.83;;
41709;SDS011;59402;48.396;-4.472;2023-02-21T03:50:05;26.63;;;18.27;;
41709;SDS011;59402;48.396;-4.472;2023-02-21T03:52:35;23.50;;;18.13;;
41709;SDS011;59402;48.396;-4.472;2023-02-21T03:55:01;22.98;;;16.95;;
41709;SDS011;59402;48.396;-4.472;2023-02-21T03:57:28;22.63;;;17.15;;
41709;SDS011;59402;48.396;-4.472;2023-02-21T03:59:54;20.63;;;16.38;;
41709;SDS011;59402;48.396;-4.472;2023-02-21T04:02:20;22.30;;;17.35;;
41709;SDS011;59402;48.396;-4.472;2023-02-21T04:04:45;20.15;;;15.30;;
41709;SDS011;59402;48.396;-4.472;2023-02-21T04:07:16;20.77;;;16.23;;
41709;SDS011;59402;48.396;-4.472;2023-02-21T04:09:43;21.17;;;16.02;;
41709;SDS011;59402;48.396;-4.472;2023-02-21T04:12:12;21.52;;;16.65;;
41709;SDS011;59402;48.396;-4.472;2023-02-21T04:14:39;21.65;;;16.40;;
41709;SDS011;59402;48.396;-4.472;2023-02-21T04:17:05;19.38;;;15.27;;
41709;SDS011;59402;48.396;-4.472;2023-02-21T04:19:31;18.65;;;14.82;;
41709;SDS011;59402;48.396;-4.472;2023-02-21T04:21:57;18.02;;;14.70;;
41709;SDS011;59402;48.396;-4.472;2023-02-21T04:24:24;18.37;;;14.40;;
41709;SDS011;59402;48.396;-4.472;2023-02-21T04:26:50;20.23;;;15.30;;
41709;SDS011;59402;48.396;-4.472;2023-02-21T04:29:16;19.00;;;15.23;;
41709;SDS011;59402;48.396;-4.472;2023-02-21T04:31:42;19.02;;;15.52;;
41709;SDS011;59402;48.396;-4.472;2023-02-21T04:34:13;18.15;;;14.90;;
41709;SDS011;59402;48.396;-4.472;2023-02-21T04:36:42;18.52;;;14.60;;
41709;SDS011;59402;48.396;-4.472;2023-02-21T04:39:08;17.75;;;14.50;;
41709;SDS011;59402;48.396;-4.472;2023-02-21T04:41:33;17.85;;;14.38;;
41709;SDS011;59402;48.396;-4.472;2023-02-21T04:43:59;18.20;;;13.88;;
41709;SDS011;59402;48.396;-4.472;2023-02-21T04:46:29;18.90;;;13.50;;
41709;SDS011;59402;48.396;-4.472;2023-02-21T04:48:55;17.38;;;14.10;;
41709;SDS011;59402;48.396;-4.472;2023-02-21T04:51:22;17.05;;;13.43;;
41709;SDS011;59402;48.396;-4.472;2023-02-21T04:53:48;17.63;;;13.35;;
41709;SDS011;59402;48.396;-4.472;2023-02-21T04:56:14;18.48;;;13.90;;
41709;SDS011;59402;48.396;-4.472;2023-02-21T04:58:42;19.92;;;13.63;;
41709;SDS011;59402;48.396;-4.472;2023-02-21T05:01:09;20.15;;;15.00;;
41709;SDS011;59402;48.396;-4.472;2023-02-21T05:03:36;16.70;;;13.43;;
41709;SDS011;59402;48.396;-4.472;2023-02-21T05:06:02;17.95;;;14.70;;
41709;SDS011;59402;48.396;-4.472;2023-02-21T05:08:28;19.73;;;15.02;;
41709;SDS011;59402;48.396;-4.472;2023-02-21T05:10:53;19.70;;;14.57;;
41709;SDS011;59402;48.396;-4.472;2023-02-21T05:13:20;19.08;;;14.45;;
41709;SDS011;59402;48.396;-4.472;2023-02-21T05:15:47;20.80;;;14.20;;
41709;SDS011;59402;48.396;-4.472;2023-02-21T05:18:13;18.17;;;13.45;;
41709;SDS011;59402;48.396;-4.472;2023-02-21T05:20:47;19.48;;;14.57;;
41709;SDS011;59402;48.396;-4.472;2023-02-21T05:23:16;19.05;;;14.82;;
41709;SDS011;59402;48.396;-4.472;2023-02-21T05:25:43;17.48;;;13.98;;
41709;SDS011;59402;48.396;-4.472;2023-02-21T05:28:08;19.25;;;13.98;;
41709;SDS011;59402;48.396;-4.472;2023-02-21T05:30:34;16.67;;;12.90;;
41709;SDS011;59402;48.396;-4.472;2023-02-21T05:33:00;17.67;;;13.00;;
41709;SDS011;59402;48.396;-4.472;2023-02-21T05:35:26;17.58;;;13.02;;
41709;SDS011;59402;48.396;-4.472;2023-02-21T05:37:51;19.00;;;13.38;;
41709;SDS011;59402;48.396;-4.472;2023-02-21T05:40:17;18.80;;;13.27;;
41709;SDS011;59402;48.396;-4.472;2023-02-21T05:42:43;16.20;;;12.40;;
41709;SDS011;59402;48.396;-4.472;2023-02-21T05:45:09;15.65;;;12.32;;
41709;SDS011;59402;48.396;-4.472;2023-02-21T05:47:35;15.02;;;12.00;;
41709;SDS011;59402;48.396;-4.472;2023-02-21T05:50:01;18.52;;;12.23;;
41709;SDS011;59402;48.396;-4.472;2023-02-21T05:52:28;16.35;;;12.07;;
41709;SDS011;59402;48.396;-4.472;2023-02-21T05:54:54;16.10;;;12.60;;
41709;SDS011;59402;48.396;-4.472;2023-02-21T05:57:19;16.77;;;12.52;;
41709;SDS011;59402;48.396;-4.472;2023-02-21T05:59:45;16.65;;;12.10;;
41709;SDS011;59402;48.396;-4.472;2023-02-21T06:02:14;16.40;;;11.68;;
41709;SDS011;59402;48.396;-4.472;2023-02-21T06:04:39;15.30;;;11.10;;
41709;SDS011;59402;48.396;-4.472;2023-02-21T06:07:05;15.93;;;12.30;;
41709;SDS011;59402;48.396;-4.472;2023-02-21T06:09:31;15.07;;;11.85;;
41709;SDS011;59402;48.396;-4.472;2023-02-21T06:11:57;14.88;;;12.10;;
41709;SDS011;59402;48.396;-4.472;2023-02-21T06:14:23;17.25;;;12.10;;
41709;SDS011;59402;48.396;-4.472;2023-02-21T06:16:50;17.20;;;13.50;;
41709;SDS011;59402;48.396;-4.472;2023-02-21T06:19:16;16.20;;;12.55;;
41709;SDS011;59402;48.396;-4.472;2023-02-21T06:21:43;16.95;;;13.98;;
41709;SDS011;59402;48.396;-4.472;2023-02-21T06:24:10;17.95;;;12.65;;
41709;SDS011;59402;48.396;-4.472;2023-02-21T06:26:36;17.23;;;13.18;;
41709;SDS011;59402;48.396;-4.472;2023-02-21T06:29:05;15.57;;;12.05;;
41709;SDS011;59402;48.396;-4.472;2023-02-21T06:31:31;16.58;;;13.13;;
41709;SDS011;59402;48.396;-4.472;2023-02-21T06:33:57;18.10;;;13.05;;
41709;SDS011;59402;48.396;-4.472;2023-02-21T06:36:24;16.48;;;12.95;;
41709;SDS011;59402;48.396;-4.472;2023-02-21T06:38:51;17.05;;;13.05;;
41709;SDS011;59402;48.396;-4.472;2023-02-21T06:41:24;16.63;;;12.77;;
41709;SDS011;59402;48.396;-4.472;2023-02-21T06:43:52;17.35;;;12.55;;
41709;SDS011;59402;48.396;-4.472;2023-02-21T06:46:18;17.98;;;12.40;;
41709;SDS011;59402;48.396;-4.472;2023-02-21T06:48:46;16.02;;;12.75;;
41709;SDS011;59402;48.396;-4.472;2023-02-21T06:51:11;16.77;;;12.55;;
41709;SDS011;59402;48.396;-4.472;2023-02-21T06:53:41;16.60;;;12.15;;
41709;SDS011;59402;48.396;-4.472;2023-02-21T06:56:08;16.05;;;12.55;;
41709;SDS011;59402;48.396;-4.472;2023-02-21T06:58:34;14.98;;;12.23;;
41709;SDS011;59402;48.396;-4.472;2023-02-21T07:01:00;17.33;;;12.63;;
41709;SDS011;59402;48.396;-4.472;2023-02-21T07:03:26;15.88;;;11.52;;
41709;SDS011;59402;48.396;-4.472;2023-02-21T07:05:52;17.15;;;12.43;;
41709;SDS011;59402;48.396;-4.472;2023-02-21T07:08:18;16.95;;;12.40;;
41709;SDS011;59402;48.396;-4.472;2023-02-21T07:10:44;19.77;;;11.88;;
41709;SDS011;59402;48.396;-4.472;2023-02-21T07:13:09;17.23;;;11.80;;
41709;SDS011;59402;48.396;-4.472;2023-02-21T07:15:35;15.02;;;11.02;;
41709;SDS011;59402;48.396;-4.472;2023-02-21T07:18:01;14.45;;;11.13;;
41709;SDS011;59402;48.396;-4.472;2023-02-21T07:20:27;13.85;;;11.30;;
41709;SDS011;59402;48.396;-4.472;2023-02-21T07:22:53;15.23;;;11.98;;
41709;SDS011;59402;48.396;-4.472;2023-02-21T07:25:19;18.17;;;11.88;;
41709;SDS011;59402;48.396;-4.472;2023-02-21T07:27:47;18.10;;;12.02;;
41709;SDS011;59402;48.396;-4.472;2023-02-21T07:30:13;16.02;;;12.27;;
41709;SDS011;59402;48.396;-4.472;2023-02-21T07:32:40;17.58;;;12.88;;
41709;SDS011;59402;48.396;-4.472;2023-02-21T07:35:06;17.27;;;12.68;;
41709;SDS011;59402;48.396;-4.472;2023-02-21T07:37:32;19.73;;;12.98;;
41709;SDS011;59402;48.396;-4.472;2023-02-21T07:39:58;19.92;;;13.40;;
41709;SDS011;59402;48.396;-4.472;2023-02-21T07:42:23;18.60;;;13.40;;
41709;SDS011;59402;48.396;-4.472;2023-02-21T07:44:54;19.58;;;13.55;;
41709;SDS011;59402;48.396;-4.472;2023-02-21T07:47:21;17.73;;;13.98;;
41709;SDS011;59402;48.396;-4.472;2023-02-21T07:49:47;17.30;;;13.23;;
41709;SDS011;59402;48.396;-4.472;2023-02-21T07:52:13;17.75;;;12.50;;
41709;SDS011;59402;48.396;-4.472;2023-02-21T07:54:39;19.80;;;12.75;;
41709;SDS011;59402;48.396;-4.472;2023-02-21T07:57:05;18.70;;;11.18;;
41709;SDS011;59402;48.396;-4.472;2023-02-21T07:59:31;17.42;;;12.30;;
41709;SDS011;59402;48.396;-4.472;2023-02-21T08:01:57;16.48;;;11.82;;
41709;SDS011;59402;48.396;-4.472;2023-02-21T08:04:23;18.92;;;12.35;;
41709;SDS011;59402;48.396;-4.472;2023-02-21T08:06:49;15.93;;;11.40;;
41709;SDS011;59402;48.396;-4.472;2023-02-21T08:09:15;18.08;;;12.73;;
41709;SDS011;59402;48.396;-4.472;2023-02-21T08:11:41;17.90;;;12.80;;
41709;SDS011;59402;48.396;-4.472;2023-02-21T08:14:07;16.73;;;11.98;;
41709;SDS011;59402;48.396;-4.472;2023-02-21T08:16:32;15.65;;;11.43;;
41709;SDS011;59402;48.396;-4.472;2023-02-21T08:18:58;14.68;;;11.23;;
41709;SDS011;59402;48.396;-4.472;2023-02-21T08:21:24;13.10;;;10.13;;
41709;SDS011;59402;48.396;-4.472;2023-02-21T08:23:53;14.75;;;10.35;;
41709;SDS011;59402;48.396;-4.472;2023-02-21T08:26:19;15.70;;;10.38;;
41709;SDS011;59402;48.396;-4.472;2023-02-21T08:28:46;15.50;;;11.20;;
41709;SDS011;59402;48.396;-4.472;2023-02-21T08:31:12;16.42;;;10.73;;
41709;SDS011;59402;48.396;-4.472;2023-02-21T08:33:38;13.70;;;10.23;;
41709;SDS011;59402;48.396;-4.472;2023-02-21T08:36:03;13.63;;;10.20;;
41709;SDS011;59402;48.396;-4.472;2023-02-21T08:38:29;14.60;;;10.40;;
41709;SDS011;59402;48.396;-4.472;2023-02-21T08:40:55;13.88;;;10.00;;
41709;SDS011;59402;48.396;-4.472;2023-02-21T08:43:22;17.58;;;10.90;;
41709;SDS011;59402;48.396;-4.472;2023-02-21T08:45:49;14.95;;;10.07;;
41709;SDS011;59402;48.396;-4.472;2023-02-21T08:48:15;17.40;;;11.05;;
41709;SDS011;59402;48.396;-4.472;2023-02-21T08:50:41;14.98;;;10.65;;
41709;SDS011;59402;48.396;-4.472;2023-02-21T08:53:07;13.82;;;11.23;;
41709;SDS011;59402;48.396;-4.472;2023-02-21T08:55:35;14.55;;;10.95;;
41709;SDS011;59402;48.396;-4.472;2023-02-21T08:58:00;15.75;;;11.30;;
41709;SDS011;59402;48.396;-4.472;2023-02-21T09:00:26;14.40;;;10.60;;
41709;SDS011;59402;48.396;-4.472;2023-02-21T09:02:52;15.80;;;11.38;;
41709;SDS011;59402;48.396;-4.472;2023-02-21T09:05:22;18.92;;;11.18;;
41709;SDS011;59402;48.396;-4.472;2023-02-21T09:07:51;16.60;;;11.52;;
41709;SDS011;59402;48.396;-4.472;2023-02-21T09:10:24;16.15;;;11.55;;
41709;SDS011;59402;48.396;-4.472;2023-02-21T09:12:50;12.07;;;10.02;;
41709;SDS011;59402;48.396;-4.472;2023-02-21T09:15:16;14.52;;;11.57;;
41709;SDS011;59402;48.396;-4.472;2023-02-21T09:17:42;16.40;;;11.73;;
41709;SDS011;59402;48.396;-4.472;2023-02-21T09:20:09;16.88;;;11.57;;
41709;SDS011;59402;48.396;-4.472;2023-02-21T09:22:37;14.85;;;11.00;;
41709;SDS011;59402;48.396;-4.472;2023-02-21T09:25:03;15.00;;;10.60;;
41709;SDS011;59402;48.396;-4.472;2023-02-21T09:27:29;17.00;;;11.38;;
41709;SDS011;59402;48.396;-4.472;2023-02-21T09:30:04;20.40;;;12.75;;
41709;SDS011;59402;48.396;-4.472;2023-02-21T09:32:31;15.55;;;11.88;;
41709;SDS011;59402;48.396;-4.472;2023-02-21T09:34:57;16.52;;;11.93;;
41709;SDS011;59402;48.396;-4.472;2023-02-21T09:37:23;21.48;;;12.35;;
41709;SDS011;59402;48.396;-4.472;2023-02-21T09:39:49;15.88;;;11.55;;
41709;SDS011;59402;48.396;-4.472;2023-02-21T09:42:17;15.32;;;11.00;;
41709;SDS011;59402;48.396;-4.472;2023-02-21T09:44:44;14.68;;;10.40;;
41709;SDS011;59402;48.396;-4.472;2023-02-21T09:47:12;14.55;;;10.48;;
41709;SDS011;59402;48.396;-4.472;2023-02-21T09:49:43;15.55;;;10.20;;
41709;SDS011;59402;48.396;-4.472;2023-02-21T09:52:18;14.43;;;10.35;;
41709;SDS011;59402;48.396;-4.472;2023-02-21T09:54:51;14.73;;;10.52;;
41709;SDS011;59402;48.396;-4.472;2023-02-21T09:57:20;13.13;;;10.68;;
41709;SDS011;59402;48.396;-4.472;2023-02-21T09:59:47;15.77;;;11.18;;
41709;SDS011;59402;48.396;-4.472;2023-02-21T10:02:18;14.10;;;10.10;;
41709;SDS011;59402;48.396;-4.472;2023-02-21T10:08:22;16.52;;;10.35;;
41709;SDS011;59402;48.396;-4.472;2023-02-21T10:11:24;17.27;;;9.85;;
41709;SDS011;59402;48.396;-4.472;2023-02-21T10:14:01;18.70;;;11.05;;
41709;SDS011;59402;48.396;-4.472;2023-02-21T10:16:36;22.65;;;10.90;;
41709;SDS011;59402;48.396;-4.472;2023-02-21T10:19:15;21.77;;;10.38;;
41709;SDS011;59402;48.396;-4.472;2023-02-21T10:21:47;19.05;;;11.43;;
41709;SDS011;59402;48.396;-4.472;2023-02-21T10:24:14;16.88;;;10.93;;
41709;SDS011;59402;48.396;-4.472;2023-02-21T10:27:04;16.25;;;10.93;;
41709;SDS011;59402;48.396;-4.472;2023-02-21T10:29:41;14.73;;;10.32;;
41709;SDS011;59402;48.396;-4.472;2023-02-21T10:32:11;15.05;;;10.18;;
41709;SDS011;59402;48.396;-4.472;2023-02-21T10:34:37;20.50;;;10.07;;
41709;SDS011;59402;48.396;-4.472;2023-02-21T10:37:05;15.63;;;8.88;;
41709;SDS011;59402;48.396;-4.472;2023-02-21T10:39:48;15.30;;;10.07;;
41709;SDS011;59402;48.396;-4.472;2023-02-21T10:42:38;11.25;;;8.98;;
41709;SDS011;59402;48.396;-4.472;2023-02-21T10:45:07;13.85;;;9.55;;
41709;SDS011;59402;48.396;-4.472;2023-02-21T10:48:16;14.02;;;8.63;;
41709;SDS011;59402;48.396;-4.472;2023-02-21T10:53:02;13.10;;;9.00;;
41709;SDS011;59402;48.396;-4.472;2023-02-21T10:55:28;15.32;;;8.43;;
41709;SDS011;59402;48.396;-4.472;2023-02-21T10:57:55;11.98;;;8.32;;
41709;SDS011;59402;48.396;-4.472;2023-02-21T11:00:30;13.10;;;8.80;;
41709;SDS011;59402;48.396;-4.472;2023-02-21T11:03:21;13.75;;;9.00;;
41709;SDS011;59402;48.396;-4.472;2023-02-21T11:05:54;16.60;;;8.93;;
41709;SDS011;59402;48.396;-4.472;2023-02-21T11:08:39;14.10;;;10.77;;
41709;SDS011;59402;48.396;-4.472;2023-02-21T11:11:07;18.83;;;10.23;;
41709;SDS011;59402;48.396;-4.472;2023-02-21T11:13:33;20.77;;;10.70;;
41709;SDS011;59402;48.396;-4.472;2023-02-21T11:16:10;18.70;;;9.98;;
41709;SDS011;59402;48.396;-4.472;2023-02-21T11:18:41;16.95;;;9.45;;
41709;SDS011;59402;48.396;-4.472;2023-02-21T11:23:48;23.98;;;9.85;;
41709;SDS011;59402;48.396;-4.472;2023-02-21T11:26:26;18.83;;;9.90;;
41709;SDS011;59402;48.396;-4.472;2023-02-21T11:31:28;15.05;;;9.05;;
41709;SDS011;59402;48.396;-4.472;2023-02-21T11:33:56;16.45;;;10.35;;
41709;SDS011;59402;48.396;-4.472;2023-02-21T11:36:27;13.32;;;8.70;;
41709;SDS011;59402;48.396;-4.472;2023-02-21T11:39:04;15.35;;;9.25;;
41709;SDS011;59402;48.396;-4.472;2023-02-21T11:44:35;13.70;;;8.48;;
41709;SDS011;59402;48.396;-4.472;2023-02-21T11:49:54;10.20;;;8.20;;
41709;SDS011;59402;48.396;-4.472;2023-02-21T11:55:38;11.98;;;9.05;;
41709;SDS011;59402;48.396;-4.472;2023-02-21T11:58:05;12.40;;;8.77;;
41709;SDS011;59402;48.396;-4.472;2023-02-21T12:06:05;12.23;;;8.90;;
41709;SDS011;59402;48.396;-4.472;2023-02-21T12:21:17;11.75;;;9.43;;
41709;SDS011;59402;48.396;-4.472;2023-02-21T12:26:57;14.02;;;9.57;;
41709;SDS011;59402;48.396;-4.472;2023-02-21T12:32:25;12.20;;;9.52;;
41709;SDS011;59402;48.396;-4.472;2023-02-21T12:43:34;16.08;;;10.90;;
41709;SDS011;59402;48.396;-4.472;2023-02-21T12:48:47;13.93;;;9.27;;
41709;SDS011;59402;48.396;-4.472;2023-02-21T12:51:37;13.45;;;9.25;;
41709;SDS011;59402;48.396;-4.472;2023-02-21T12:54:33;13.98;;;9.75;;
41709;SDS011;59402;48.396;-4.472;2023-02-21T12:57:04;13.20;;;9.18;;
41709;SDS011;59402;48.396;-4.472;2023-02-21T13:05:38;14.75;;;10.10;;
41709;SDS011;59402;48.396;-4.472;2023-02-21T13:08:45;17.23;;;10.70;;
41709;SDS011;59402;48.396;-4.472;2023-02-21T13:11:24;13.63;;;10.73;;
41709;SDS011;59402;48.396;-4.472;2023-02-21T13:13:54;15.02;;;10.90;;
41709;SDS011;59402;48.396;-4.472;2023-02-21T13:16:20;13.32;;;10.48;;
41709;SDS011;59402;48.396;-4.472;2023-02-21T13:19:00;12.75;;;10.23;;
41709;SDS011;59402;48.396;-4.472;2023-02-21T13:27:26;14.60;;;10.82;;
41709;SDS011;59402;48.396;-4.472;2023-02-21T13:29:46;13.23;;;9.98;;
41709;SDS011;59402;48.396;-4.472;2023-02-21T13:32:14;12.55;;;10.38;;
41709;SDS011;59402;48.396;-4.472;2023-02-21T13:34:47;14.48;;;10.68;;
41709;SDS011;59402;48.396;-4.472;2023-02-21T13:37:34;14.32;;;10.43;;
41709;SDS011;59402;48.396;-4.472;2023-02-21T13:40:24;14.05;;;10.70;;
41709;SDS011;59402;48.396;-4.472;2023-02-21T13:43:04;13.27;;;9.57;;
41709;SDS011;59402;48.396;-4.472;2023-02-21T13:45:31;15.02;;;11.45;;
41709;SDS011;59402;48.396;-4.472;2023-02-21T13:50:45;13.90;;;10.77;;
41709;SDS011;59402;48.396;-4.472;2023-02-21T13:53:15;15.00;;;10.45;;
41709;SDS011;59402;48.396;-4.472;2023-02-21T13:58:34;14.07;;;10.52;;
41709;SDS011;59402;48.396;-4.472;2023-02-21T14:01:18;14.55;;;9.80;;
41709;SDS011;59402;48.396;-4.472;2023-02-21T14:03:53;11.27;;;8.85;;
41709;SDS011;59402;48.396;-4.472;2023-02-21T14:06:35;12.18;;;9.65;;
41709;SDS011;59402;48.396;-4.472;2023-02-21T14:09:02;11.50;;;9.30;;
41709;SDS011;59402;48.396;-4.472;2023-02-21T14:11:43;11.15;;;9.10;;
41709;SDS011;59402;48.396;-4.472;2023-02-21T14:14:33;18.13;;;10.60;;
41709;SDS011;59402;48.396;-4.472;2023-02-21T14:17:10;14.23;;;9.95;;
41709;SDS011;59402;48.396;-4.472;2023-02-21T14:19:41;11.07;;;8.93;;
41709;SDS011;59402;48.396;-4.472;2023-02-21T14:24:40;15.05;;;9.23;;
41709;SDS011;59402;48.396;-4.472;2023-02-21T15:01:57;15.35;;;11.75;;
41709;SDS011;59402;48.396;-4.472;2023-02-21T15:09:39;16.10;;;12.02;;
41709;SDS011;59402;48.396;-4.472;2023-02-21T15:12:07;15.40;;;10.20;;
41709;SDS011;59402;48.396;-4.472;2023-02-21T15:14:55;15.60;;;11.23;;
41709;SDS011;59402;48.396;-4.472;2023-02-21T15:17:23;14.70;;;10.20;;
41709;SDS011;59402;48.396;-4.472;2023-02-21T15:22:54;16.95;;;11.27;;
41709;SDS011;59402;48.396;-4.472;2023-02-21T15:25:28;15.25;;;10.52;;
41709;SDS011;59402;48.396;-4.472;2023-02-21T15:27:56;17.38;;;10.82;;
41709;SDS011;59402;48.396;-4.472;2023-02-21T15:30:27;15.82;;;10.38;;
41709;SDS011;59402;48.396;-4.472;2023-02-21T15:32:59;18.02;;;10.48;;
41709;SDS011;59402;48.396;-4.472;2023-02-21T15:35:44;13.68;;;10.77;;
41709;SDS011;59402;48.396;-4.472;2023-02-21T15:38:19;14.73;;;10.80;;
41709;SDS011;59402;48.396;-4.472;2023-02-21T15:41:05;14.80;;;10.77;;
41709;SDS011;59402;48.396;-4.472;2023-02-21T15:43:48;18.65;;;10.50;;
41709;SDS011;59402;48.396;-4.472;2023-02-21T15:46:45;15.80;;;10.80;;
41709;SDS011;59402;48.396;-4.472;2023-02-21T15:49:26;15.52;;;11.13;;
41709;SDS011;59402;48.396;-4.472;2023-02-21T15:51:54;14.68;;;11.00;;
41709;SDS011;59402;48.396;-4.472;2023-02-21T15:54:21;14.52;;;11.63;;
41709;SDS011;59402;48.396;-4.472;2023-02-21T15:57:02;17.10;;;11.95;;
41709;SDS011;59402;48.396;-4.472;2023-02-21T15:59:36;16.20;;;11.23;;
41709;SDS011;59402;48.396;-4.472;2023-02-21T16:04:46;13.85;;;11.07;;
41709;SDS011;59402;48.396;-4.472;2023-02-21T16:09:46;18.25;;;11.98;;
41709;SDS011;59402;48.396;-4.472;2023-02-21T16:14:43;16.00;;;11.75;;
41709;SDS011;59402;48.396;-4.472;2023-02-21T16:17:21;19.08;;;13.55;;
41709;SDS011;59402;48.396;-4.472;2023-02-21T16:19:49;18.60;;;12.82;;
41709;SDS011;59402;48.396;-4.472;2023-02-21T16:27:36;17.58;;;12.88;;
41709;SDS011;59402;48.396;-4.472;2023-02-21T16:30:03;18.35;;;13.90;;
41709;SDS011;59402;48.396;-4.472;2023-02-21T16:32:29;16.47;;;12.37;;
41709;SDS011;59402;48.396;-4.472;2023-02-21T16:34:55;18.05;;;12.98;;
41709;SDS011;59402;48.396;-4.472;2023-02-21T16:37:22;18.50;;;13.40;;
41709;SDS011;59402;48.396;-4.472;2023-02-21T16:39:48;17.83;;;13.73;;
41709;SDS011;59402;48.396;-4.472;2023-02-21T16:42:15;18.65;;;14.95;;
41709;SDS011;59402;48.396;-4.472;2023-02-21T16:44:43;20.70;;;15.65;;
41709;SDS011;59402;48.396;-4.472;2023-02-21T16:47:16;20.67;;;15.63;;
41709;SDS011;59402;48.396;-4.472;2023-02-21T16:49:44;23.98;;;15.57;;
41709;SDS011;59402;48.396;-4.472;2023-02-21T16:52:13;20.05;;;15.88;;
41709;SDS011;59402;48.396;-4.472;2023-02-21T16:54:39;19.67;;;15.20;;
41709;SDS011;59402;48.396;-4.472;2023-02-21T16:57:05;23.10;;;15.40;;
41709;SDS011;59402;48.396;-4.472;2023-02-21T16:59:31;24.35;;;16.52;;
41709;SDS011;59402;48.396;-4.472;2023-02-21T17:01:57;22.10;;;17.25;;
41709;SDS011;59402;48.396;-4.472;2023-02-21T17:04:24;21.75;;;16.50;;
41709;SDS011;59402;48.396;-4.472;2023-02-21T17:06:58;22.58;;;17.15;;
41709;SDS011;59402;48.396;-4.472;2023-02-21T17:09:28;27.85;;;17.80;;
41709;SDS011;59402;48.396;-4.472;2023-02-21T17:11:57;25.05;;;18.15;;
41709;SDS011;59402;48.396;-4.472;2023-02-21T17:14:24;25.75;;;16.98;;
41709;SDS011;59402;48.396;-4.472;2023-02-21T17:16:50;26.40;;;17.73;;
41709;SDS011;59402;48.396;-4.472;2023-02-21T17:19:17;21.50;;;16.90;;
41709;SDS011;59402;48.396;-4.472;2023-02-21T17:21:45;27.60;;;18.75;;
41709;SDS011;59402;48.396;-4.472;2023-02-21T17:24:12;26.73;;;19.75;;
41709;SDS011;59402;48.396;-4.472;2023-02-21T17:26:38;25.92;;;19.38;;
41709;SDS011;59402;48.396;-4.472;2023-02-21T17:29:05;23.13;;;19.45;;
41709;SDS011;59402;48.396;-4.472;2023-02-21T17:31:31;28.92;;;21.60;;
41709;SDS011;59402;48.396;-4.472;2023-02-21T17:33:56;24.80;;;19.38;;